createdAt,value
2023-05-25T00:00:19.538Z,102157.09
2023-05-25T00:02:46.611Z,102153.91
2023-05-25T00:05:14.423Z,102151.00
2023-05-25T00:07:44.240Z,102151.38
2023-05-25T00:10:12.375Z,102153.28
2023-05-25T00:12:39.144Z,102159.34
2023-05-25T00:15:07.085Z,102154.47
2023-05-25T00:17:33.970Z,102160.31
2023-05-25T00:20:09.504Z,102157.13
2023-05-25T00:22:37.338Z,102151.63
2023-05-25T00:25:05.140Z,102160.03
2023-05-25T00:27:31.980Z,102163.81
2023-05-25T00:29:59.223Z,102161.28
2023-05-25T00:32:26.125Z,102157.72
2023-05-25T00:34:54.476Z,102154.13
2023-05-25T00:37:21.764Z,102157.25
2023-05-25T00:39:48.473Z,102152.00
2023-05-25T00:42:15.959Z,102159.13
2023-05-25T00:44:43.063Z,102154.06
2023-05-25T00:47:11.730Z,102155.28
2023-05-25T00:49:38.453Z,102145.00
2023-05-25T00:52:05.695Z,102147.16
2023-05-25T00:54:33.685Z,102150.31
2023-05-25T00:57:06.497Z,102159.97
2023-05-25T00:59:41.373Z,102156.97
2023-05-25T01:02:11.920Z,102150.91
2023-05-25T01:04:45.632Z,102153.97
2023-05-25T01:07:18.126Z,102160.81
2023-05-25T01:09:46.726Z,102160.38
2023-05-25T01:12:16.322Z,102160.09
2023-05-25T01:14:43.794Z,102160.84
2023-05-25T01:17:11.407Z,102162.44
2023-05-25T01:19:41.485Z,102150.66
2023-05-25T01:22:32.909Z,102159.66
2023-05-25T01:25:05.253Z,102156.09
2023-05-25T01:27:40.192Z,102158.81
2023-05-25T01:30:12.742Z,102164.69
2023-05-25T01:32:42.573Z,102173.53
2023-05-25T01:35:11.174Z,102174.53
2023-05-25T01:37:47.798Z,102163.50
2023-05-25T01:40:15.751Z,102178.94
2023-05-25T01:42:42.559Z,102170.31
2023-05-25T01:45:11.216Z,102168.84
2023-05-25T01:47:47.067Z,102174.06
2023-05-25T01:50:31.441Z,102172.84
2023-05-25T01:53:11.299Z,102172.19
2023-05-25T01:55:52.955Z,102152.91
2023-05-25T01:58:20.825Z,102151.03
2023-05-25T02:00:51.036Z,102169.97
2023-05-25T02:03:18.604Z,102158.81
2023-05-25T02:05:46.456Z,102158.03
2023-05-25T02:08:14.336Z,102164.53
2023-05-25T02:10:41.760Z,102148.50
2023-05-25T02:13:08.449Z,102172.47
2023-05-25T02:15:35.116Z,102174.53
2023-05-25T02:18:01.906Z,102177.25
2023-05-25T02:20:28.795Z,102163.56
2023-05-25T02:22:55.562Z,102170.22
2023-05-25T02:25:22.249Z,102167.72
2023-05-25T02:27:49.222Z,102176.31
2023-05-25T02:30:15.856Z,102167.81
2023-05-25T02:32:42.585Z,102171.16
2023-05-25T02:35:11.958Z,102168.94
2023-05-25T02:37:39.258Z,102174.16
2023-05-25T02:40:06.476Z,102175.47
2023-05-25T02:42:33.271Z,102169.38
2023-05-25T02:44:59.956Z,102173.81
2023-05-25T02:47:26.774Z,102171.09
2023-05-25T02:49:53.582Z,102156.19
2023-05-25T02:52:21.310Z,102157.03
2023-05-25T02:54:48.138Z,102154.03
2023-05-25T02:57:14.756Z,102161.34
2023-05-25T02:59:41.752Z,102163.84
2023-05-25T03:02:08.438Z,102166.56
2023-05-25T03:04:37.662Z,102148.22
2023-05-25T03:07:04.496Z,102159.44
2023-05-25T03:09:31.396Z,102161.97
2023-05-25T03:11:58.132Z,102169.09
2023-05-25T03:14:25.062Z,102170.81
2023-05-25T03:16:53.798Z,102166.38
2023-05-25T03:19:21.035Z,102173.53
2023-05-25T03:21:47.788Z,102169.75
2023-05-25T03:24:14.468Z,102171.63
2023-05-25T03:26:43.404Z,102170.41
2023-05-25T03:29:12.619Z,102173.81
2023-05-25T03:31:39.380Z,102182.97
2023-05-25T03:34:07.003Z,102184.38
2023-05-25T03:36:34.066Z,102187.25
2023-05-25T03:39:01.191Z,102191.69
2023-05-25T03:41:27.861Z,102178.66
2023-05-25T03:43:54.600Z,102188.78
2023-05-25T03:46:23.327Z,102186.72
2023-05-25T03:48:50.158Z,102187.19
2023-05-25T03:51:16.842Z,102191.03
2023-05-25T03:53:43.615Z,102195.03
2023-05-25T03:56:10.485Z,102199.47
2023-05-25T03:58:37.144Z,102192.16
2023-05-25T04:01:05.218Z,102191.59
2023-05-25T04:03:33.111Z,102194.13
2023-05-25T04:06:00.740Z,102192.03
2023-05-25T04:08:28.841Z,102204.59
2023-05-25T04:10:56.288Z,102200.94
2023-05-25T04:13:23.558Z,102207.66
2023-05-25T04:15:51.483Z,102206.84
2023-05-25T04:18:19.297Z,102205.16
2023-05-25T04:20:46.856Z,102207.31
2023-05-25T04:23:13.500Z,102203.94
2023-05-25T04:25:42.382Z,102215.34
2023-05-25T04:28:09.217Z,102204.22
2023-05-25T04:30:36.339Z,102222.38
2023-05-25T04:33:03.773Z,102228.03
2023-05-25T04:35:31.853Z,102230.75
2023-05-25T04:38:00.724Z,102223.69
2023-05-25T04:40:28.811Z,102231.00
2023-05-25T04:42:56.000Z,102216.59
2023-05-25T04:45:24.017Z,102237.38
2023-05-25T04:47:51.187Z,102239.91
2023-05-25T04:50:18.060Z,102245.81
2023-05-25T04:52:44.945Z,102231.75
2023-05-25T04:55:11.793Z,102239.53
2023-05-25T04:57:38.491Z,102217.50
2023-05-25T05:00:06.431Z,102232.84
2023-05-25T05:02:34.599Z,102229.28
2023-05-25T05:05:01.568Z,102237.81
2023-05-25T05:07:29.100Z,102243.66
2023-05-25T05:09:55.850Z,102246.97
2023-05-25T05:12:22.445Z,102242.75
2023-05-25T05:14:50.156Z,102240.47
2023-05-25T05:17:17.914Z,102240.97
2023-05-25T05:19:45.436Z,102235.13
2023-05-25T05:22:13.388Z,102243.56
2023-05-25T05:24:40.303Z,102252.06
2023-05-25T05:27:09.501Z,102250.94
2023-05-25T05:29:37.616Z,102251.34
2023-05-25T05:32:04.368Z,102252.50
2023-05-25T05:34:31.486Z,102250.38
2023-05-25T05:37:00.192Z,102248.56
2023-05-25T05:39:27.508Z,102265.34
2023-05-25T05:41:55.132Z,102229.25
2023-05-25T05:44:24.633Z,102261.56
2023-05-25T05:46:53.074Z,102246.34
2023-05-25T05:49:19.773Z,102255.31
2023-05-25T05:51:46.513Z,102261.41
2023-05-25T05:54:13.101Z,102265.97
2023-05-25T05:56:40.280Z,102265.59
2023-05-25T05:59:07.522Z,102264.56
2023-05-25T06:01:34.529Z,102273.41
2023-05-25T06:04:01.807Z,102281.72
2023-05-25T06:06:29.069Z,102283.75
2023-05-25T06:08:55.752Z,102282.34
2023-05-25T06:11:22.541Z,102288.75
2023-05-25T06:13:49.218Z,102278.44
2023-05-25T06:16:15.857Z,102278.00
2023-05-25T06:18:42.512Z,102298.66
2023-05-25T06:21:10.673Z,102302.44
2023-05-25T06:23:37.252Z,102304.66
2023-05-25T06:26:05.803Z,102302.88
2023-05-25T06:28:32.910Z,102292.13
2023-05-25T06:30:59.688Z,102302.44
2023-05-25T06:33:26.580Z,102301.78
2023-05-25T06:35:58.301Z,102294.19
2023-05-25T06:38:25.196Z,102301.44
2023-05-25T06:40:51.909Z,102304.13
2023-05-25T06:43:18.926Z,102312.22
2023-05-25T06:45:46.339Z,102303.53
2023-05-25T06:48:13.467Z,102312.56
2023-05-25T06:50:40.541Z,102312.75
2023-05-25T06:53:07.392Z,102315.66
2023-05-25T06:55:34.850Z,102323.63
2023-05-25T06:58:01.613Z,102320.91
2023-05-25T07:00:31.065Z,102323.19
2023-05-25T07:02:57.873Z,102321.03
2023-05-25T07:05:24.753Z,102318.53
2023-05-25T07:07:51.558Z,102307.91
2023-05-25T07:10:18.480Z,102323.34
2023-05-25T07:12:45.123Z,102317.50
2023-05-25T07:15:13.326Z,102320.06
2023-05-25T07:17:40.349Z,102320.91
2023-05-25T07:20:07.654Z,102299.22
2023-05-25T07:22:34.574Z,102327.19
2023-05-25T07:25:01.912Z,102307.19
2023-05-25T07:27:30.770Z,102325.94
2023-05-25T07:29:57.425Z,102333.16
2023-05-25T07:32:24.094Z,102330.84
2023-05-25T07:34:50.924Z,102336.72
2023-05-25T07:37:19.070Z,102343.25
2023-05-25T07:39:45.776Z,102335.75
2023-05-25T07:42:12.504Z,102340.78
2023-05-25T07:44:39.235Z,102340.84
2023-05-25T07:47:07.272Z,102341.97
2023-05-25T07:49:36.134Z,102345.81
2023-05-25T07:52:06.211Z,102350.97
2023-05-25T07:54:32.933Z,102354.31
2023-05-25T07:56:59.680Z,102355.44
2023-05-25T07:59:26.413Z,102334.34
2023-05-25T08:01:53.201Z,102361.34
2023-05-25T08:04:19.958Z,102347.25
2023-05-25T08:06:46.804Z,102361.97
2023-05-25T08:09:13.577Z,102352.19
2023-05-25T08:11:40.802Z,102359.19
2023-05-25T08:14:07.586Z,102368.91
2023-05-25T08:16:34.324Z,102377.34
2023-05-25T08:19:01.804Z,102370.81
2023-05-25T08:21:28.646Z,102377.13
2023-05-25T08:23:56.175Z,102378.78
2023-05-25T08:28:52.857Z,102376.44
2023-05-25T08:31:19.565Z,102384.59
2023-05-25T08:33:46.436Z,102383.84
2023-05-25T08:36:13.272Z,102384.19
2023-05-25T08:38:42.565Z,102381.13
2023-05-25T08:41:14.173Z,102391.81
2023-05-25T08:43:42.148Z,102383.75
2023-05-25T08:46:12.809Z,102379.19
2023-05-25T08:48:42.220Z,102391.63
2023-05-25T08:51:12.038Z,102393.75
2023-05-25T08:53:41.627Z,102400.66
2023-05-25T08:56:20.303Z,102402.78
2023-05-25T08:59:00.114Z,102406.56
2023-05-25T09:01:31.252Z,102410.75
2023-05-25T09:04:00.159Z,102409.84
2023-05-25T09:06:28.376Z,102424.50
2023-05-25T09:08:55.261Z,102427.22
2023-05-25T09:11:35.907Z,102435.44
2023-05-25T09:14:08.145Z,102429.56
2023-05-25T09:16:37.733Z,102420.94
2023-05-25T09:19:04.660Z,102433.44
2023-05-25T09:21:31.694Z,102434.75
2023-05-25T09:24:01.861Z,102433.09
2023-05-25T09:26:28.754Z,102424.25
2023-05-25T09:28:55.704Z,102440.25
2023-05-25T09:31:24.754Z,102411.00
2023-05-25T09:33:55.581Z,102438.53
2023-05-25T09:36:23.360Z,102445.72
2023-05-25T09:38:53.266Z,102443.56
2023-05-25T09:41:21.025Z,102453.47
2023-05-25T09:46:15.798Z,102453.13
2023-05-25T09:48:43.278Z,102452.72
2023-05-25T09:51:11.918Z,102465.72
2023-05-25T09:53:38.728Z,102473.19
2023-05-25T09:56:05.943Z,102469.63
2023-05-25T09:58:33.028Z,102464.66
2023-05-25T10:03:27.656Z,102461.88
2023-05-25T10:05:55.350Z,102463.09
2023-05-25T10:08:25.201Z,102470.22
2023-05-25T10:10:53.841Z,102472.19
2023-05-25T10:13:25.417Z,102486.00
2023-05-25T10:15:54.717Z,102464.56
2023-05-25T10:18:26.271Z,102479.53
2023-05-25T10:21:03.967Z,102480.78
2023-05-25T10:23:38.030Z,102485.28
2023-05-25T10:26:06.327Z,102482.13
2023-05-25T10:28:37.456Z,102485.28
2023-05-25T10:31:06.155Z,102482.78
2023-05-25T10:33:33.789Z,102479.19
2023-05-25T10:38:39.359Z,102477.69
2023-05-25T10:41:12.151Z,102496.66
2023-05-25T10:43:40.622Z,102491.19
2023-05-25T10:46:08.435Z,102498.34
2023-05-25T10:48:48.214Z,102494.13
2023-05-25T10:51:19.566Z,102486.34
2023-05-25T10:53:48.091Z,102490.97
2023-05-25T10:56:14.958Z,102483.38
2023-05-25T10:58:46.582Z,102486.31
2023-05-25T11:01:16.101Z,102477.72
2023-05-25T11:03:50.771Z,102493.72
2023-05-25T11:06:21.628Z,102484.00
2023-05-25T11:09:03.896Z,102487.84
2023-05-25T11:11:42.534Z,102487.22
2023-05-25T11:14:32.912Z,102485.69
2023-05-25T11:17:12.001Z,102490.56
2023-05-25T11:19:55.016Z,102488.88
2023-05-25T11:22:37.988Z,102475.34
2023-05-25T11:25:42.404Z,102491.81
2023-05-25T11:28:12.219Z,102487.09
2023-05-25T11:30:44.359Z,102490.16
2023-05-25T11:33:12.208Z,102491.31
2023-05-25T11:35:39.038Z,102484.41
2023-05-25T11:38:07.197Z,102488.56
2023-05-25T11:40:34.369Z,102482.19
2023-05-25T11:43:02.350Z,102487.66
2023-05-25T11:45:30.050Z,102489.69
2023-05-25T11:47:57.915Z,102477.81
2023-05-25T11:50:25.105Z,102482.00
2023-05-25T11:52:52.107Z,102488.81
2023-05-25T11:55:19.035Z,102482.94
2023-05-25T11:57:46.180Z,102469.84
2023-05-25T12:00:13.667Z,102481.31
2023-05-25T12:02:42.382Z,102478.16
2023-05-25T12:05:11.081Z,102468.56
2023-05-25T12:07:44.429Z,102477.94
2023-05-25T12:10:14.063Z,102473.09
2023-05-25T12:12:49.475Z,102471.72
2023-05-25T12:15:25.777Z,102470.44
2023-05-25T12:17:53.947Z,102431.22
2023-05-25T12:20:21.920Z,102469.06
2023-05-25T12:22:48.861Z,102464.78
2023-05-25T12:25:20.294Z,102468.75
2023-05-25T12:27:47.105Z,102466.16
2023-05-25T12:30:13.791Z,102458.44
2023-05-25T12:33:03.725Z,102434.09
2023-05-25T12:35:45.391Z,102462.56
2023-05-25T12:38:20.128Z,102456.94
2023-05-25T12:40:47.144Z,102447.59
2023-05-25T12:43:15.380Z,102441.19
2023-05-25T12:45:43.026Z,102456.94
2023-05-25T12:48:13.400Z,102445.53
2023-05-25T12:50:56.787Z,102437.16
2023-05-25T12:53:25.258Z,102439.78
2023-05-25T12:56:01.633Z,102445.19
2023-05-25T12:58:28.664Z,102433.72
2023-05-25T13:00:55.305Z,102408.53
2023-05-25T13:03:23.005Z,102429.13
2023-05-25T13:05:51.591Z,102442.31
2023-05-25T13:08:18.396Z,102436.56
2023-05-25T13:10:48.675Z,102441.69
2023-05-25T13:13:15.298Z,102431.63
2023-05-25T13:15:42.086Z,102429.50
2023-05-25T13:18:08.969Z,102431.88
2023-05-25T13:20:36.912Z,102433.94
2023-05-25T13:23:03.812Z,102440.28
2023-05-25T13:25:30.739Z,102435.47
2023-05-25T13:28:01.143Z,102440.63
2023-05-25T13:30:28.013Z,102430.88
2023-05-25T13:32:54.832Z,102430.78
2023-05-25T13:35:40.451Z,102441.72
2023-05-25T13:38:07.222Z,102433.47
2023-05-25T13:40:35.891Z,102431.78
2023-05-25T13:43:05.822Z,102434.41
2023-05-25T13:45:32.653Z,102431.69
2023-05-25T13:47:59.490Z,102430.19
2023-05-25T13:50:26.343Z,102390.81
2023-05-25T13:52:53.050Z,102414.72
2023-05-25T13:55:19.823Z,102419.09
2023-05-25T13:57:46.622Z,102424.13
2023-05-25T14:00:14.556Z,102415.44
2023-05-25T14:02:44.393Z,102404.09
2023-05-25T14:05:11.733Z,102414.25
2023-05-25T14:07:41.562Z,102409.84
2023-05-25T14:10:09.973Z,102416.81
2023-05-25T14:12:36.901Z,102423.50
2023-05-25T14:15:04.266Z,102414.78
2023-05-25T14:17:30.978Z,102422.78
2023-05-25T14:19:59.110Z,102410.22
2023-05-25T14:22:28.168Z,102412.00
2023-05-25T14:24:54.861Z,102416.31
2023-05-25T14:27:21.888Z,102423.03
2023-05-25T14:29:49.882Z,102422.06
2023-05-25T14:32:17.218Z,102423.28
2023-05-25T14:34:44.156Z,102417.50
2023-05-25T14:37:11.911Z,102433.03
2023-05-25T14:39:38.647Z,102424.88
2023-05-25T14:42:06.047Z,102421.56
2023-05-25T14:44:32.768Z,102417.97
2023-05-25T14:46:59.431Z,102427.88
2023-05-25T14:49:27.449Z,102426.78
2023-05-25T14:51:54.320Z,102424.94
2023-05-25T14:56:48.047Z,102436.69
2023-05-25T14:59:14.654Z,102433.56
2023-05-25T15:01:44.948Z,102432.84
2023-05-25T15:04:13.028Z,102422.31
2023-05-25T15:06:42.796Z,102431.53
2023-05-25T15:09:09.631Z,102426.25
2023-05-25T15:11:36.810Z,102436.81
2023-05-25T15:14:03.561Z,102425.19
2023-05-25T15:16:30.320Z,102428.66
2023-05-25T15:18:57.077Z,102433.56
2023-05-25T15:21:23.821Z,102433.09
2023-05-25T15:23:51.483Z,102426.03
2023-05-25T15:26:18.284Z,102426.25
2023-05-25T15:28:44.927Z,102424.56
2023-05-25T15:31:13.100Z,102397.03
2023-05-25T15:33:53.701Z,102419.66
2023-05-25T15:36:23.221Z,102422.38
2023-05-25T15:38:49.913Z,102426.38
2023-05-25T15:41:17.411Z,102419.75
2023-05-25T15:43:58.651Z,102408.84
2023-05-25T15:46:26.169Z,102420.78
2023-05-25T15:48:53.480Z,102428.72
2023-05-25T15:51:20.595Z,102409.84
2023-05-25T15:53:47.747Z,102406.50
2023-05-25T15:56:14.335Z,102420.94
2023-05-25T15:58:41.689Z,102421.66
2023-05-25T16:01:08.413Z,102416.44
2023-05-25T16:03:35.251Z,102416.25
2023-05-25T16:06:02.489Z,102406.50
2023-05-25T16:08:29.244Z,102411.69
2023-05-25T16:10:56.082Z,102412.22
2023-05-25T16:13:22.869Z,102405.84
2023-05-25T16:15:49.640Z,102398.38
2023-05-25T16:18:16.744Z,102413.81
2023-05-25T16:20:44.181Z,102408.44
2023-05-25T16:23:14.910Z,102384.97
2023-05-25T16:25:42.174Z,102407.91
2023-05-25T16:28:08.910Z,102411.88
2023-05-25T16:30:35.659Z,102396.16
2023-05-25T16:33:02.401Z,102398.91
2023-05-25T16:35:29.123Z,102371.56
2023-05-25T16:37:56.256Z,102392.38
2023-05-25T16:40:23.108Z,102396.75
2023-05-25T16:42:49.777Z,102399.34
2023-05-25T16:45:16.589Z,102391.16
2023-05-25T16:47:43.374Z,102402.03
2023-05-25T16:50:10.495Z,102403.63
2023-05-25T16:52:37.245Z,102381.50
2023-05-25T16:55:04.300Z,102383.13
2023-05-25T16:57:31.128Z,102394.16
2023-05-25T16:59:57.912Z,102394.63
2023-05-25T17:02:24.636Z,102396.53
2023-05-25T17:04:51.398Z,102392.25
2023-05-25T17:07:18.440Z,102395.22
2023-05-25T17:09:45.107Z,102389.88
2023-05-25T17:12:12.812Z,102393.56
2023-05-25T17:14:39.684Z,102384.97
2023-05-25T17:17:06.455Z,102389.88
2023-05-25T17:19:33.146Z,102397.69
2023-05-25T17:22:01.807Z,102390.44
2023-05-25T17:24:28.601Z,102387.59
2023-05-25T17:26:56.440Z,102390.53
2023-05-25T17:29:23.404Z,102389.78
2023-05-25T17:31:50.285Z,102387.63
2023-05-25T17:34:17.183Z,102389.56
2023-05-25T17:36:43.894Z,102379.53
2023-05-25T17:39:10.815Z,102388.03
2023-05-25T17:41:37.612Z,102389.72
2023-05-25T17:44:04.330Z,102387.50
2023-05-25T17:46:31.434Z,102395.94
2023-05-25T17:48:58.227Z,102389.84
2023-05-25T17:51:24.992Z,102390.78
2023-05-25T17:53:52.109Z,102400.69
2023-05-25T17:56:18.758Z,102395.22
2023-05-25T17:58:47.628Z,102360.19
2023-05-25T18:01:15.832Z,102398.31
2023-05-25T18:03:42.832Z,102391.41
2023-05-25T18:06:10.756Z,102398.16
2023-05-25T18:08:37.531Z,102394.38
2023-05-25T18:11:07.624Z,102393.50
2023-05-25T18:13:35.533Z,102396.19
2023-05-25T18:16:02.167Z,102400.34
2023-05-25T18:18:28.851Z,102407.19
2023-05-25T18:20:56.562Z,102404.38
2023-05-25T18:23:23.407Z,102398.63
2023-05-25T18:25:52.608Z,102413.72
2023-05-25T18:28:19.337Z,102415.75
2023-05-25T18:30:47.089Z,102409.34
2023-05-25T18:33:13.867Z,102409.03
2023-05-25T18:35:40.875Z,102394.19
2023-05-25T18:38:07.634Z,102408.16
2023-05-25T18:40:34.480Z,102410.41
2023-05-25T18:43:04.740Z,102405.84
2023-05-25T18:45:31.635Z,102391.19
2023-05-25T18:48:07.518Z,102405.97
2023-05-25T18:50:39.504Z,102402.44
2023-05-25T18:53:07.925Z,102404.75
2023-05-25T18:55:34.972Z,102400.13
2023-05-25T18:58:02.177Z,102397.28
2023-05-25T19:00:29.456Z,102399.88
2023-05-25T19:02:57.295Z,102397.63
2023-05-25T19:05:24.771Z,102386.69
2023-05-25T19:07:59.270Z,102401.81
2023-05-25T19:10:27.561Z,102390.09
2023-05-25T19:12:54.719Z,102402.78
2023-05-25T19:15:21.640Z,102391.28
2023-05-25T19:17:48.510Z,102398.50
2023-05-25T19:20:15.610Z,102375.06
2023-05-25T19:22:42.593Z,102403.03
2023-05-25T19:25:11.206Z,102400.78
2023-05-25T19:27:37.923Z,102398.53
2023-05-25T19:30:05.146Z,102406.03
2023-05-25T19:32:32.058Z,102410.94
2023-05-25T19:34:58.874Z,102396.59
2023-05-25T19:37:26.519Z,102402.53
2023-05-25T19:39:53.430Z,102406.94
2023-05-25T19:42:44.420Z,102408.28
2023-05-25T19:45:13.375Z,102412.34
2023-05-25T19:47:40.729Z,102408.75
2023-05-25T19:50:08.506Z,102402.78
2023-05-25T19:52:35.313Z,102416.44
2023-05-25T19:55:03.158Z,102375.63
2023-05-25T19:57:29.852Z,102417.28
2023-05-25T19:59:57.801Z,102425.88
2023-05-25T20:02:24.690Z,102410.41
2023-05-25T20:04:51.505Z,102412.75
2023-05-25T20:07:18.569Z,102411.91
2023-05-25T20:09:45.946Z,102405.00
2023-05-25T20:12:13.724Z,102405.66
2023-05-25T20:14:42.863Z,102415.44
2023-05-25T20:17:12.596Z,102424.00
2023-05-25T20:19:39.364Z,102417.47
2023-05-25T20:22:08.226Z,102407.41
2023-05-25T20:24:35.011Z,102413.59
2023-05-25T20:27:05.067Z,102412.19
2023-05-25T20:29:33.906Z,102425.22
2023-05-25T20:32:00.846Z,102425.44
2023-05-25T20:34:27.541Z,102421.97
2023-05-25T20:36:54.282Z,102416.63
2023-05-25T20:39:21.136Z,102426.56
2023-05-25T20:41:47.925Z,102417.47
2023-05-25T20:44:14.783Z,102430.97
2023-05-25T20:46:44.974Z,102440.31
2023-05-25T20:49:12.006Z,102435.84
2023-05-25T20:51:38.679Z,102432.50
2023-05-25T20:54:05.647Z,102437.22
2023-05-25T20:56:32.617Z,102412.31
2023-05-25T20:58:59.479Z,102431.81
2023-05-25T21:01:26.322Z,102441.59
2023-05-25T21:03:53.719Z,102447.47
2023-05-25T21:06:21.080Z,102445.53
2023-05-25T21:08:47.881Z,102441.47
2023-05-25T21:11:14.564Z,102435.84
2023-05-25T21:13:42.213Z,102444.69
2023-05-25T21:16:08.993Z,102439.69
2023-05-25T21:18:35.751Z,102446.09
2023-05-25T21:21:02.501Z,102443.81
2023-05-25T21:23:29.302Z,102443.59
2023-05-25T21:25:56.134Z,102450.50
2023-05-25T21:28:23.700Z,102450.56
2023-05-25T21:30:50.718Z,102446.59
2023-05-25T21:33:17.358Z,102445.13
2023-05-25T21:35:44.454Z,102452.19
2023-05-25T21:38:12.286Z,102444.16
2023-05-25T21:40:38.909Z,102450.03
2023-05-25T21:43:05.552Z,102453.22
2023-05-25T21:45:32.196Z,102447.84
2023-05-25T21:47:58.879Z,102455.25
2023-05-25T21:50:25.881Z,102452.88
2023-05-25T21:52:52.658Z,102449.06
2023-05-25T21:55:19.433Z,102457.25
2023-05-25T21:57:46.050Z,102464.84
2023-05-25T22:00:14.505Z,102464.28
2023-05-25T22:02:41.833Z,102464.75
2023-05-25T22:05:08.661Z,102461.78
2023-05-25T22:07:35.285Z,102474.28
2023-05-25T22:10:01.987Z,102471.88
2023-05-25T22:12:28.661Z,102470.88
2023-05-25T22:14:55.274Z,102481.22
2023-05-25T22:17:22.031Z,102481.97
2023-05-25T22:19:58.950Z,102479.69
2023-05-25T22:22:34.056Z,102470.63
2023-05-25T22:25:00.681Z,102452.78
2023-05-25T22:27:27.319Z,102466.66
2023-05-25T22:29:53.941Z,102469.78
2023-05-25T22:32:20.754Z,102462.09
2023-05-25T22:34:47.405Z,102464.97
2023-05-25T22:37:14.136Z,102467.47
2023-05-25T22:39:40.946Z,102468.31
2023-05-25T22:42:07.740Z,102474.38
2023-05-25T22:44:38.020Z,102469.94
2023-05-25T22:47:06.416Z,102475.31
2023-05-25T22:49:44.249Z,102462.88
2023-05-25T22:52:12.497Z,102455.31
2023-05-25T22:54:41.639Z,102450.50
2023-05-25T22:57:09.614Z,102465.34
2023-05-25T22:59:36.356Z,102471.03
2023-05-25T23:02:03.149Z,102467.47
2023-05-25T23:04:29.792Z,102469.59
2023-05-25T23:06:56.445Z,102473.56
2023-05-25T23:09:23.088Z,102482.72
2023-05-25T23:11:49.782Z,102475.41
2023-05-25T23:14:16.451Z,102483.63
2023-05-25T23:16:43.209Z,102476.53
2023-05-25T23:19:12.391Z,102476.81
2023-05-25T23:21:39.076Z,102479.19
2023-05-25T23:24:06.194Z,102486.16
2023-05-25T23:26:32.848Z,102483.91
2023-05-25T23:28:59.629Z,102486.44
2023-05-25T23:31:26.332Z,102485.59
2023-05-25T23:33:53.217Z,102482.94
2023-05-25T23:36:20.843Z,102486.91
2023-05-25T23:38:47.500Z,102497.09
2023-05-25T23:41:15.933Z,102490.47
2023-05-25T23:43:42.546Z,102497.28
2023-05-25T23:46:09.428Z,102490.19
2023-05-25T23:48:36.136Z,102493.00
2023-05-25T23:51:02.910Z,102489.59
2023-05-25T23:53:29.550Z,102493.84
2023-05-25T23:55:56.147Z,102495.69
2023-05-25T23:58:22.834Z,102495.41
